Portada
METAR-TAF:

METAR-TAF

Aeroports :

Orà, Algèria

latitud: 35-38N, longitud: 000-36W, altitud: 90 m

Observació

L'informe es va fer fa 29 minuts, a les 08:00 UTC
Vent 17 kt del Sud/Sud-Oest
Temperatura 22°C
Humitat 69%
Pressió 1014 hPa
Visibilitat 10 km o més
Escasses núvols a una alçada de 2600 ft

METAR: DAOO 050800Z 21017KT 9999 FEW026 22/16 Q1014

Hora: 09:29 (08:29 UTC)

Pronòstic

L'informe es va fer fa 3 hores i 29 minuts, a les 05:00 UTC
Pronòstic vàlid del 05 a les 06 UTC al 06 a les 06 UTC
Vent 11 kt del Sud-Oest amb ràfegues de 21 kt
Visibilitat 10 km o més
sense núvols per sota de 1500 mi sense presència de cumulonimbus.
Evolucionant progressivament
l' 05 a les 12 UTC al 05 a les 15 UTC
Vent 14 kt del Oest
Temporalment
l' 08 a les 12 UTC al 08 a les 21 UTC
Vent 15 kt del Oest amb ràfegues de 25 kt

TAF: DAOO 050500Z 0506/0606 22011G21KT CAVOK BECMG 0512/0515 28014KT TEMPO 0812/0821 28015G25KT

Observacions i pronòstics meteorològics de més de 4000 aeroports (METAR i TAF).

Les estacions disponibles són els punts grocs i vermells al mapa.

Posi el ratolí al punt desitjat per veure el nom de l'estació.

Feu clic per veure les observacions i els pronòstics meteorològics.

Per canviar el mapa: feu clic els botons verds amb una creu de color negre per apropar; al botó verd amb un guió per allunyar la imatge; o en les fletxes verdes per a mapes adjacents.


METAR-TAF: